createdAt,value
2022-08-05T00:01:01.027Z,20.39
2022-08-05T00:02:07.634Z,20.36
2022-08-05T00:02:59.178Z,20.38
2022-08-05T00:03:58.188Z,20.38
2022-08-05T00:04:58.147Z,20.35
2022-08-05T00:06:04.859Z,20.35
2022-08-05T00:06:59.119Z,20.33
2022-08-05T00:08:00.878Z,20.31
2022-08-05T00:08:58.130Z,20.29
2022-08-05T00:09:58.089Z,20.28
2022-08-05T00:11:00.804Z,20.26
2022-08-05T00:12:00.007Z,20.29
2022-08-05T00:12:58.047Z,20.26
2022-08-05T00:13:58.037Z,20.23
2022-08-05T00:14:58.040Z,20.23
2022-08-05T00:16:00.416Z,20.23
2022-08-05T00:16:58.003Z,20.23
2022-08-05T00:17:57.997Z,20.18
2022-08-05T00:18:57.957Z,20.16
2022-08-05T00:20:02.418Z,20.14
2022-08-05T00:20:58.936Z,20.13
2022-08-05T00:21:57.940Z,20.11
2022-08-05T00:23:02.324Z,20.10
2022-08-05T00:24:10.478Z,20.10
2022-08-05T00:24:58.901Z,20.08
2022-08-05T00:25:57.878Z,20.08
2022-08-05T00:26:58.574Z,20.08
2022-08-05T00:27:57.858Z,20.10
2022-08-05T00:28:57.840Z,20.08
2022-08-05T00:29:57.837Z,20.08
2022-08-05T00:30:57.805Z,20.08
2022-08-05T00:32:12.810Z,20.06
2022-08-05T00:32:58.798Z,20.06
2022-08-05T00:34:53.412Z,20.05
2022-08-05T00:35:06.749Z,20.03
2022-08-05T00:36:16.095Z,20.03
2022-08-05T00:37:13.074Z,20.03
2022-08-05T00:37:58.716Z,20.03
2022-08-05T00:38:57.707Z,20.02
2022-08-05T00:39:58.992Z,20.01
2022-08-05T00:40:57.677Z,19.99
2022-08-05T00:41:57.666Z,19.98
2022-08-05T00:42:57.647Z,19.96
2022-08-05T00:43:57.646Z,19.95
2022-08-05T00:44:57.626Z,19.92
2022-08-05T00:45:57.626Z,19.88
2022-08-05T00:47:02.176Z,19.88
2022-08-05T00:48:06.025Z,19.87
2022-08-05T00:48:58.572Z,19.86
2022-08-05T00:49:57.564Z,19.83
2022-08-05T00:50:57.554Z,19.80
2022-08-05T00:51:57.548Z,19.78
2022-08-05T00:52:57.524Z,19.77
2022-08-05T00:54:02.248Z,19.77
2022-08-05T00:54:58.484Z,19.76
2022-08-05T00:55:57.494Z,19.74
2022-08-05T00:56:57.479Z,19.73
2022-08-05T00:57:58.896Z,19.74
2022-08-05T00:58:57.433Z,19.73
2022-08-05T00:59:57.445Z,19.71
2022-08-05T01:00:57.530Z,19.71
2022-08-05T01:01:57.431Z,19.69
2022-08-05T01:02:57.383Z,19.69
2022-08-05T01:03:57.385Z,19.68
2022-08-05T01:04:57.356Z,19.65
2022-08-05T01:05:57.364Z,19.66
2022-08-05T01:06:57.334Z,19.66
2022-08-05T01:08:41.465Z,19.63
2022-08-05T01:08:58.304Z,19.65
2022-08-05T01:09:57.294Z,19.63
2022-08-05T01:10:57.950Z,19.62
2022-08-05T01:11:59.756Z,19.61
2022-08-05T01:13:12.797Z,19.58
2022-08-05T01:13:59.783Z,19.56
2022-08-05T01:14:57.238Z,19.56
2022-08-05T01:15:57.222Z,19.54
2022-08-05T01:16:57.221Z,19.54
2022-08-05T01:17:57.203Z,19.51
2022-08-05T01:18:57.184Z,19.50
2022-08-05T01:20:01.823Z,19.50
2022-08-05T01:20:58.154Z,19.47
2022-08-05T01:21:57.153Z,19.48
2022-08-05T01:22:57.423Z,19.47
2022-08-05T01:23:57.103Z,19.47
2022-08-05T01:24:57.111Z,19.47
2022-08-05T01:25:57.085Z,19.47
2022-08-05T01:26:57.092Z,19.46
2022-08-05T01:27:57.062Z,19.44
2022-08-05T01:28:57.052Z,19.46
2022-08-05T01:29:58.033Z,19.43
2022-08-05T01:30:57.020Z,19.44
2022-08-05T01:31:57.022Z,19.43
2022-08-05T01:32:56.992Z,19.41
2022-08-05T01:33:56.982Z,19.40
2022-08-05T01:34:56.965Z,19.40
2022-08-05T01:35:57.525Z,19.40
2022-08-05T01:36:56.951Z,19.40
2022-08-05T01:37:56.942Z,19.40
2022-08-05T01:39:00.363Z,19.39
2022-08-05T01:39:58.999Z,19.41
2022-08-05T01:40:56.892Z,19.40
2022-08-05T01:41:56.893Z,19.43
2022-08-05T01:42:56.881Z,19.43
2022-08-05T01:43:56.851Z,19.44
2022-08-05T01:44:56.852Z,19.47
2022-08-05T01:45:57.189Z,19.46
2022-08-05T01:46:56.811Z,19.46
2022-08-05T01:47:56.801Z,19.46
2022-08-05T01:48:56.791Z,19.44
2022-08-05T01:50:02.107Z,19.46
2022-08-05T01:50:57.761Z,19.46
2022-08-05T01:51:56.758Z,19.44
2022-08-05T01:52:56.751Z,19.46
2022-08-05T01:53:58.827Z,19.46
2022-08-05T01:54:56.711Z,19.46
2022-08-05T01:55:56.690Z,19.46
2022-08-05T01:58:11.544Z,19.48
2022-08-05T01:58:18.883Z,19.47
2022-08-05T01:58:57.660Z,19.50
2022-08-05T01:59:56.643Z,19.50
2022-08-05T02:00:56.629Z,19.51
2022-08-05T02:01:56.673Z,19.54
2022-08-05T02:02:56.610Z,19.54
2022-08-05T02:03:56.599Z,19.54
2022-08-05T02:04:56.579Z,19.55
2022-08-05T02:05:59.741Z,19.54
2022-08-05T02:06:56.559Z,19.56
2022-08-05T02:07:59.896Z,19.55
2022-08-05T02:08:58.755Z,19.55
2022-08-05T02:09:56.509Z,19.54
2022-08-05T02:10:56.510Z,19.55
2022-08-05T02:11:56.509Z,19.55
2022-08-05T02:12:56.479Z,19.56
2022-08-05T02:13:56.470Z,19.55
2022-08-05T02:14:56.449Z,19.58
2022-08-05T02:15:56.437Z,19.56
2022-08-05T02:16:56.419Z,19.58
2022-08-05T02:18:31.379Z,19.56
2022-08-05T02:18:57.419Z,19.55
2022-08-05T02:19:56.378Z,19.55
2022-08-05T02:20:58.850Z,19.55
2022-08-05T02:21:56.349Z,19.56
2022-08-05T02:22:56.341Z,19.59
2022-08-05T02:23:56.329Z,19.59
2022-08-05T02:24:56.331Z,19.58
2022-08-05T02:25:56.297Z,19.62
2022-08-05T02:26:56.287Z,19.61
2022-08-05T02:27:59.113Z,19.62
2022-08-05T02:28:56.276Z,19.62
2022-08-05T02:29:59.022Z,19.63
2022-08-05T02:30:56.692Z,19.62
2022-08-05T02:31:56.244Z,19.63
2022-08-05T02:32:56.219Z,19.65
2022-08-05T02:33:57.481Z,19.65
2022-08-05T02:34:56.277Z,19.65
2022-08-05T02:35:59.138Z,19.65
2022-08-05T02:36:57.159Z,19.65
2022-08-05T02:37:56.149Z,19.65
2022-08-05T02:38:56.149Z,19.65
2022-08-05T02:39:56.125Z,19.65
2022-08-05T02:40:56.116Z,19.65
2022-08-05T02:42:01.009Z,19.62
2022-08-05T02:42:57.077Z,19.61
2022-08-05T02:44:02.317Z,19.59
2022-08-05T02:44:57.057Z,19.56
2022-08-05T02:45:56.055Z,19.56
2022-08-05T02:46:59.736Z,19.54
2022-08-05T02:48:06.729Z,19.54
2022-08-05T02:48:57.006Z,19.54
2022-08-05T02:49:55.996Z,19.50
2022-08-05T02:50:55.996Z,19.47
2022-08-05T02:52:03.122Z,19.47
2022-08-05T02:52:56.955Z,19.44
2022-08-05T02:53:55.935Z,19.47
2022-08-05T02:54:56.936Z,19.46
2022-08-05T02:56:00.295Z,19.43
2022-08-05T02:56:56.896Z,19.43
2022-08-05T02:58:10.138Z,19.43
2022-08-05T02:58:56.876Z,19.39
2022-08-05T02:59:55.856Z,19.36
2022-08-05T03:00:55.866Z,19.31
2022-08-05T03:01:55.900Z,19.29
2022-08-05T03:02:55.831Z,19.26
2022-08-05T03:04:02.597Z,19.25
2022-08-05T03:04:56.795Z,19.22
2022-08-05T03:06:55.156Z,19.21
2022-08-05T03:06:59.355Z,19.18
2022-08-05T03:08:06.910Z,19.14
2022-08-05T03:08:56.743Z,19.13
2022-08-05T03:09:55.736Z,19.11
2022-08-05T03:11:53.129Z,19.11
2022-08-05T03:11:58.318Z,19.11
2022-08-05T03:13:51.438Z,19.11
2022-08-05T03:14:30.129Z,19.08
2022-08-05T03:15:29.122Z,19.06
2022-08-05T03:16:29.118Z,19.06
2022-08-05T03:17:29.099Z,19.04
2022-08-05T03:18:30.053Z,19.02
2022-08-05T03:19:34.553Z,18.99
2022-08-05T03:20:30.048Z,18.99
2022-08-05T03:21:29.069Z,18.95
2022-08-05T03:22:32.136Z,18.95
2022-08-05T03:23:29.019Z,18.94
2022-08-05T03:24:30.142Z,18.94
2022-08-05T03:25:32.764Z,18.92
2022-08-05T03:26:31.471Z,18.92
2022-08-05T03:27:29.583Z,18.90
2022-08-05T03:28:29.960Z,18.91
2022-08-05T03:29:45.821Z,18.88
2022-08-05T03:30:33.820Z,18.88
2022-08-05T03:31:56.488Z,18.85
2022-08-05T03:32:30.635Z,18.82
2022-08-05T03:33:42.222Z,18.81
2022-08-05T03:34:29.869Z,18.81
2022-08-05T03:35:28.869Z,18.81
2022-08-05T03:36:30.255Z,18.78
2022-08-05T03:37:28.850Z,18.76
2022-08-05T03:38:33.345Z,18.73
2022-08-05T03:39:29.850Z,18.67
2022-08-05T03:40:32.083Z,18.62
2022-08-05T03:41:32.915Z,18.60
2022-08-05T03:42:29.045Z,18.57
2022-08-05T03:44:09.702Z,18.52
2022-08-05T03:44:29.754Z,18.51
2022-08-05T03:45:28.738Z,18.51
2022-08-05T03:46:30.029Z,18.54
2022-08-05T03:47:30.413Z,18.54
2022-08-05T03:48:29.840Z,18.52
2022-08-05T03:49:31.228Z,18.50
2022-08-05T03:50:29.676Z,18.47
2022-08-05T03:52:39.017Z,18.44
2022-08-05T03:52:39.069Z,18.41
2022-08-05T03:55:50.895Z,18.39
2022-08-05T03:55:51.689Z,18.41
2022-08-05T03:56:04.360Z,18.37
2022-08-05T03:56:34.764Z,18.39
2022-08-05T03:57:42.308Z,18.37
2022-08-05T03:58:29.575Z,18.36
2022-08-05T03:59:29.030Z,18.35
2022-08-05T04:00:29.539Z,18.35
2022-08-05T04:01:28.597Z,18.32
2022-08-05T04:02:37.334Z,18.33
2022-08-05T04:03:29.515Z,18.33
2022-08-05T04:04:28.494Z,18.35
2022-08-05T04:05:33.921Z,18.36
2022-08-05T04:06:29.464Z,18.37
2022-08-05T04:07:28.455Z,18.39
2022-08-05T04:08:34.841Z,18.42
2022-08-05T04:09:29.414Z,18.41
2022-08-05T04:10:32.015Z,18.42
2022-08-05T04:11:47.092Z,18.41
2022-08-05T04:12:29.375Z,18.42
2022-08-05T04:13:49.798Z,18.44
2022-08-05T04:14:29.864Z,18.42
2022-08-05T04:15:33.219Z,18.41
2022-08-05T04:16:32.700Z,18.37
2022-08-05T04:17:36.423Z,18.37
2022-08-05T04:18:29.306Z,18.39
2022-08-05T04:19:28.295Z,18.37
2022-08-05T04:20:28.274Z,18.39
2022-08-05T04:22:10.119Z,18.41
2022-08-05T04:22:29.248Z,18.41
2022-08-05T04:24:05.396Z,18.42
2022-08-05T04:24:29.273Z,18.44
2022-08-05T04:25:56.517Z,18.44
2022-08-05T04:26:32.433Z,18.42
2022-08-05T04:27:42.118Z,18.44
2022-08-05T04:28:30.836Z,18.44
2022-08-05T04:29:28.172Z,18.42
2022-08-05T04:30:28.144Z,18.44
2022-08-05T04:31:37.522Z,18.44
2022-08-05T04:32:30.831Z,18.47
2022-08-05T04:33:36.368Z,18.45
2022-08-05T04:34:32.860Z,18.45
2022-08-05T04:36:15.656Z,18.47
2022-08-05T04:36:49.489Z,18.45
2022-08-05T04:38:00.898Z,18.45
2022-08-05T04:38:39.288Z,18.44
2022-08-05T04:39:29.079Z,18.48
2022-08-05T04:40:28.012Z,18.48
2022-08-05T04:41:34.097Z,18.50
2022-08-05T04:42:28.992Z,18.52
2022-08-05T04:43:28.005Z,18.52
2022-08-05T04:44:29.898Z,18.54
2022-08-05T04:45:48.648Z,18.52
2022-08-05T04:46:28.941Z,18.52
2022-08-05T04:47:27.940Z,18.57
2022-08-05T04:48:28.915Z,18.57
2022-08-05T04:49:38.499Z,18.57
2022-08-05T04:50:37.167Z,18.57
2022-08-05T04:51:30.298Z,18.58
2022-08-05T04:52:28.133Z,18.57
2022-08-05T04:53:27.842Z,18.57
2022-08-05T04:54:28.841Z,18.55
2022-08-05T04:56:11.866Z,18.54
2022-08-05T04:56:34.244Z,18.52
2022-08-05T04:57:37.013Z,18.54
2022-08-05T04:58:28.782Z,18.52
2022-08-05T04:59:36.604Z,18.55
2022-08-05T05:00:28.771Z,18.54
2022-08-05T05:01:59.664Z,18.54
2022-08-05T05:02:36.463Z,18.55
2022-08-05T05:03:28.720Z,18.55
2022-08-05T05:04:28.701Z,18.55
2022-08-05T05:05:29.098Z,18.55
2022-08-05T05:06:39.418Z,18.50
2022-08-05T05:07:29.671Z,18.45
2022-08-05T05:08:30.378Z,18.42
2022-08-05T05:09:27.643Z,18.42
2022-08-05T05:10:27.629Z,18.42
2022-08-05T05:11:52.869Z,18.41
2022-08-05T05:12:28.598Z,18.42
2022-08-05T05:13:32.204Z,18.44
2022-08-05T05:14:32.221Z,18.39
2022-08-05T05:15:57.694Z,18.41
2022-08-05T05:16:30.352Z,18.41
2022-08-05T05:17:55.552Z,18.44
2022-08-05T05:18:33.219Z,18.42
2022-08-05T05:19:37.162Z,18.41
2022-08-05T05:20:29.025Z,18.41
2022-08-05T05:21:27.493Z,18.41
2022-08-05T05:22:27.469Z,18.41
2022-08-05T05:23:27.459Z,18.41
2022-08-05T05:24:56.319Z,18.36
2022-08-05T05:25:32.478Z,18.33
2022-08-05T05:26:28.287Z,18.30
2022-08-05T05:27:41.414Z,18.27
2022-08-05T05:28:28.389Z,18.26
2022-08-05T05:30:03.221Z,18.26
2022-08-05T05:30:30.954Z,18.26
2022-08-05T05:31:35.898Z,18.27
2022-08-05T05:32:27.335Z,18.27
2022-08-05T05:33:27.327Z,18.27
2022-08-05T05:34:27.386Z,18.26
2022-08-05T05:35:27.299Z,18.29
2022-08-05T05:36:28.364Z,18.29
2022-08-05T05:37:29.149Z,18.27
2022-08-05T05:38:28.261Z,18.26
2022-08-05T05:39:34.512Z,18.23
2022-08-05T05:40:28.228Z,18.20
2022-08-05T05:41:40.335Z,18.18
2022-08-05T05:42:28.217Z,18.17
2022-08-05T05:43:54.129Z,18.17
2022-08-05T05:44:37.481Z,18.17
2022-08-05T05:45:28.166Z,18.15
2022-08-05T05:46:27.148Z,18.17
2022-08-05T05:47:46.432Z,18.17
2022-08-05T05:48:28.308Z,18.20
2022-08-05T05:49:27.116Z,18.20
2022-08-05T05:50:27.097Z,18.20
2022-08-05T05:51:28.039Z,18.18
2022-08-05T05:52:31.367Z,18.17
2022-08-05T05:53:28.066Z,18.18
2022-08-05T05:54:50.312Z,18.14
2022-08-05T05:55:51.872Z,18.11
2022-08-05T05:56:32.240Z,18.10
2022-08-05T05:57:42.799Z,18.08
2022-08-05T05:58:31.792Z,18.11
2022-08-05T05:59:28.708Z,18.10
2022-08-05T06:00:31.452Z,18.10
2022-08-05T06:01:30.350Z,18.14
2022-08-05T06:02:36.663Z,18.15
2022-08-05T06:03:39.763Z,18.17
2022-08-05T06:04:27.991Z,18.18
2022-08-05T06:05:26.906Z,18.18
2022-08-05T06:06:27.926Z,18.15
2022-08-05T06:07:41.376Z,18.14
2022-08-05T06:08:32.700Z,18.14
2022-08-05T06:09:50.198Z,18.14
2022-08-05T06:10:29.473Z,18.12
2022-08-05T06:11:28.798Z,18.14
2022-08-05T06:12:27.257Z,18.11
2022-08-05T06:13:26.828Z,18.11
2022-08-05T06:14:27.874Z,18.10
2022-08-05T06:16:28.839Z,18.10
2022-08-05T06:16:32.621Z,18.11
2022-08-05T06:17:30.839Z,18.12
2022-08-05T06:18:31.124Z,18.14
2022-08-05T06:19:34.943Z,18.14
2022-08-05T06:20:28.718Z,18.12
2022-08-05T06:21:36.690Z,18.14
2022-08-05T06:22:27.693Z,18.17
2022-08-05T06:23:26.673Z,18.17
2022-08-05T06:24:27.666Z,18.18
2022-08-05T06:26:00.115Z,18.20
2022-08-05T06:26:27.631Z,18.23
2022-08-05T06:28:12.249Z,18.25
2022-08-05T06:28:28.418Z,18.26
2022-08-05T06:29:46.266Z,18.26
2022-08-05T06:30:27.581Z,18.23
2022-08-05T06:31:30.642Z,18.23
2022-08-05T06:32:28.808Z,18.21
2022-08-05T06:33:33.077Z,18.20
2022-08-05T06:34:27.813Z,18.14
2022-08-05T06:36:08.093Z,18.11
2022-08-05T06:36:27.534Z,18.11
2022-08-05T06:37:56.137Z,18.11
2022-08-05T06:38:36.683Z,18.11
2022-08-05T06:39:27.823Z,18.11
2022-08-05T06:40:27.939Z,18.11
2022-08-05T06:41:26.433Z,18.11
2022-08-05T06:42:27.170Z,18.10
2022-08-05T06:43:58.406Z,18.08
2022-08-05T06:44:27.425Z,18.08
2022-08-05T06:45:44.692Z,18.08
2022-08-05T06:46:30.167Z,18.07
2022-08-05T06:47:30.326Z,18.08
2022-08-05T06:48:50.311Z,18.08
2022-08-05T06:50:01.402Z,18.10
2022-08-05T06:50:27.382Z,18.11
2022-08-05T06:51:30.106Z,18.12
2022-08-05T06:52:38.192Z,18.15
2022-08-05T06:53:28.458Z,18.15
2022-08-05T06:54:26.292Z,18.17
2022-08-05T06:55:27.209Z,18.18
2022-08-05T06:56:27.120Z,18.18
2022-08-05T06:58:03.331Z,18.18
2022-08-05T06:58:34.958Z,18.15
2022-08-05T06:59:27.223Z,18.14
2022-08-05T07:00:26.182Z,18.14
2022-08-05T07:01:31.976Z,18.14
2022-08-05T07:02:27.171Z,18.08
2022-08-05T07:03:27.928Z,18.05
2022-08-05T07:04:27.160Z,18.00
2022-08-05T07:05:36.977Z,17.95
2022-08-05T07:06:28.426Z,17.95
2022-08-05T07:07:35.299Z,17.90
2022-08-05T07:08:27.069Z,17.92
2022-08-05T07:09:26.078Z,17.92
2022-08-05T07:10:32.683Z,17.90
2022-08-05T07:11:27.041Z,17.90
2022-08-05T07:12:26.028Z,17.89
2022-08-05T07:13:37.236Z,17.84
2022-08-05T07:14:29.384Z,17.84
2022-08-05T07:15:34.769Z,17.81
2022-08-05T07:17:57.195Z,17.82
2022-08-05T07:18:08.380Z,17.79
2022-08-05T07:18:29.132Z,17.74
2022-08-05T07:20:10.656Z,17.72
2022-08-05T07:20:37.150Z,17.72
2022-08-05T07:21:26.919Z,17.72
2022-08-05T07:22:29.134Z,17.71
2022-08-05T07:23:26.419Z,17.71
2022-08-05T07:24:28.646Z,17.70
2022-08-05T07:25:56.298Z,17.68
2022-08-05T07:26:26.847Z,17.66
2022-08-05T07:27:27.730Z,17.66
2022-08-05T07:28:26.807Z,17.66
2022-08-05T07:30:22.843Z,17.68
2022-08-05T07:30:32.004Z,17.66
2022-08-05T07:31:40.909Z,17.66
2022-08-05T07:32:26.766Z,17.66
2022-08-05T07:33:37.090Z,17.66
2022-08-05T07:34:28.782Z,17.68
2022-08-05T07:36:02.115Z,17.66
2022-08-05T07:36:26.716Z,17.63
2022-08-05T07:37:28.919Z,17.62
2022-08-05T07:38:33.472Z,17.63
2022-08-05T07:40:04.400Z,17.62
2022-08-05T07:40:33.019Z,17.62
2022-08-05T07:42:09.287Z,17.62
2022-08-05T07:42:31.866Z,17.62
2022-08-05T07:43:26.624Z,17.62
2022-08-05T07:44:25.607Z,17.62
2022-08-05T07:45:56.547Z,17.58
2022-08-05T07:46:26.809Z,17.56
2022-08-05T07:47:25.606Z,17.56
2022-08-05T07:49:03.076Z,17.54
2022-08-05T07:49:26.538Z,17.52
2022-08-05T07:50:26.730Z,17.52
2022-08-05T07:51:37.325Z,17.46
2022-08-05T07:52:26.508Z,17.44
2022-08-05T07:53:26.905Z,17.41
2022-08-05T07:54:30.884Z,17.43
2022-08-05T07:56:04.756Z,17.43
2022-08-05T07:56:59.791Z,17.43
2022-08-05T07:57:51.298Z,17.46
2022-08-05T07:58:57.412Z,17.43
2022-08-05T07:59:38.311Z,17.43
2022-08-05T08:00:26.384Z,17.40
2022-08-05T08:01:25.464Z,17.43
2022-08-05T08:02:26.576Z,17.44
2022-08-05T08:03:44.075Z,17.46
2022-08-05T08:04:37.676Z,17.44
2022-08-05T08:05:26.465Z,17.41
2022-08-05T08:06:28.112Z,17.43
2022-08-05T08:07:25.472Z,17.44
2022-08-05T08:08:26.045Z,17.46
2022-08-05T08:09:25.284Z,17.48
2022-08-05T08:10:25.266Z,17.51
2022-08-05T08:11:27.687Z,17.52
2022-08-05T08:12:35.035Z,17.54
2022-08-05T08:13:29.121Z,17.55
2022-08-05T08:14:25.224Z,17.56
2022-08-05T08:16:33.619Z,17.56
2022-08-05T08:16:35.251Z,17.55
2022-08-05T08:17:27.899Z,17.54
2022-08-05T08:18:25.155Z,17.55
2022-08-05T08:20:22.669Z,17.52
2022-08-05T08:20:44.574Z,17.49
2022-08-05T08:21:26.123Z,17.49
2022-08-05T08:22:25.111Z,17.52
2022-08-05T08:24:03.315Z,17.54
2022-08-05T08:24:46.001Z,17.55
2022-08-05T08:25:26.740Z,17.55
2022-08-05T08:26:29.674Z,17.54
2022-08-05T08:27:35.600Z,17.54
2022-08-05T08:28:36.482Z,17.52
2022-08-05T08:30:04.595Z,17.52
2022-08-05T08:30:32.891Z,17.54
2022-08-05T08:31:26.865Z,17.51
2022-08-05T08:32:27.820Z,17.49
2022-08-05T08:33:24.964Z,17.48
2022-08-05T08:34:30.236Z,17.41
2022-08-05T08:35:26.688Z,17.37
2022-08-05T08:36:38.830Z,17.37
2022-08-05T08:37:27.890Z,17.34
2022-08-05T08:38:35.913Z,17.33
2022-08-05T08:39:25.899Z,17.33
2022-08-05T08:40:24.862Z,17.36
2022-08-05T08:41:26.122Z,17.36
2022-08-05T08:42:46.959Z,17.36
2022-08-05T08:45:18.518Z,17.36
2022-08-05T08:45:19.418Z,17.34
2022-08-05T08:45:29.608Z,17.34
2022-08-05T08:46:24.781Z,17.37
2022-08-05T08:48:05.481Z,17.41
2022-08-05T08:49:00.988Z,17.40
2022-08-05T08:50:23.069Z,17.34
2022-08-05T08:50:31.716Z,17.31
2022-08-05T08:52:03.312Z,17.31
2022-08-05T08:52:26.020Z,17.31
2022-08-05T08:53:24.699Z,17.33
2022-08-05T08:54:27.123Z,17.33
2022-08-05T08:56:02.103Z,17.30
2022-08-05T08:56:27.086Z,17.25
2022-08-05T08:57:24.642Z,17.21
2022-08-05T08:58:36.895Z,17.21
2022-08-05T08:59:27.513Z,17.22
2022-08-05T09:00:24.647Z,17.22
2022-08-05T09:01:24.598Z,17.21
2022-08-05T09:02:26.891Z,17.18
2022-08-05T09:03:24.558Z,17.18
2022-08-05T09:04:30.299Z,17.19
2022-08-05T09:05:38.586Z,17.16
2022-08-05T09:06:28.198Z,17.14
2022-08-05T09:07:28.747Z,17.15
2022-08-05T09:08:27.478Z,17.18
2022-08-05T09:09:26.040Z,17.15
2022-08-05T09:10:27.156Z,17.16
2022-08-05T09:11:51.580Z,17.16
2022-08-05T09:12:27.360Z,17.16
2022-08-05T09:13:24.427Z,17.19
2022-08-05T09:14:56.816Z,17.22
2022-08-05T09:15:25.407Z,17.26
2022-08-05T09:16:26.922Z,17.25
2022-08-05T09:17:41.124Z,17.26
2022-08-05T09:18:25.359Z,17.30
2022-08-05T09:19:28.053Z,17.36
2022-08-05T09:20:36.758Z,17.37
2022-08-05T09:22:23.040Z,17.40
2022-08-05T09:22:32.088Z,17.43
2022-08-05T09:23:27.219Z,17.46
2022-08-05T09:24:24.398Z,17.48
2022-08-05T09:26:00.325Z,17.51
2022-08-05T09:26:25.246Z,17.56
2022-08-05T09:28:05.497Z,17.63
2022-08-05T09:28:32.524Z,17.68
2022-08-05T09:29:30.908Z,17.71
2022-08-05T09:30:25.199Z,17.75
2022-08-05T09:32:39.241Z,17.74
2022-08-05T09:32:39.888Z,17.72
2022-08-05T09:33:25.157Z,17.74
2022-08-05T09:34:26.162Z,17.72
2022-08-05T09:35:27.236Z,17.71
2022-08-05T09:36:27.368Z,17.70
2022-08-05T09:38:12.433Z,17.71
2022-08-05T09:38:27.510Z,17.74
2022-08-05T09:39:24.135Z,17.74
2022-08-05T09:40:25.099Z,17.74
2022-08-05T09:41:24.054Z,17.75
2022-08-05T09:42:28.505Z,17.78
2022-08-05T09:43:24.024Z,17.81
2022-08-05T09:44:24.016Z,17.82
2022-08-05T09:46:07.669Z,17.79
2022-08-05T09:46:28.033Z,17.75
2022-08-05T09:47:23.984Z,17.75
2022-08-05T09:48:23.954Z,17.75
2022-08-05T09:49:23.954Z,17.78
2022-08-05T09:50:38.690Z,17.78
2022-08-05T09:51:24.915Z,17.81
2022-08-05T09:52:24.058Z,17.82
2022-08-05T09:53:26.008Z,17.84
2022-08-05T09:54:29.318Z,17.87
2022-08-05T09:55:57.053Z,17.90
2022-08-05T09:56:24.862Z,17.89
2022-08-05T09:57:23.854Z,17.89
2022-08-05T09:58:23.848Z,17.84
2022-08-05T09:59:23.816Z,17.82
2022-08-05T10:00:23.803Z,17.79
2022-08-05T10:01:32.366Z,17.77
2022-08-05T10:02:25.096Z,17.72
2022-08-05T10:03:23.762Z,17.70
2022-08-05T10:04:28.626Z,17.64
2022-08-05T10:05:23.820Z,17.64
2022-08-05T10:06:23.743Z,17.59
2022-08-05T10:08:11.247Z,17.58
2022-08-05T10:08:36.322Z,17.59
2022-08-05T10:09:28.325Z,17.59
2022-08-05T10:10:28.167Z,17.62
2022-08-05T10:11:29.643Z,17.64
2022-08-05T10:12:31.515Z,17.68
2022-08-05T10:13:24.631Z,17.71
2022-08-05T10:14:23.621Z,17.72
2022-08-05T10:15:23.601Z,17.75
2022-08-05T10:16:23.592Z,17.78
2022-08-05T10:17:37.705Z,17.82
2022-08-05T10:18:24.571Z,17.81
2022-08-05T10:20:02.954Z,17.84
2022-08-05T10:20:25.134Z,17.87
2022-08-05T10:21:23.530Z,17.90
2022-08-05T10:22:30.385Z,17.97
2022-08-05T10:23:56.032Z,17.99
2022-08-05T10:24:24.974Z,18.03
2022-08-05T10:25:23.472Z,18.08
2022-08-05T10:26:31.638Z,18.12
2022-08-05T10:27:26.327Z,18.14
2022-08-05T10:28:29.304Z,18.17
2022-08-05T10:29:24.420Z,18.23
2022-08-05T10:31:19.922Z,18.20
2022-08-05T10:32:52.563Z,18.21
2022-08-05T10:32:52.722Z,18.23
2022-08-05T10:33:24.369Z,18.21
2022-08-05T10:34:25.805Z,18.18
2022-08-05T10:35:24.340Z,18.20
2022-08-05T10:36:26.131Z,18.23
2022-08-05T10:37:23.329Z,18.25
2022-08-05T10:38:24.310Z,18.21
2022-08-05T10:39:25.106Z,18.21
2022-08-05T10:40:28.072Z,18.23
2022-08-05T10:41:23.790Z,18.26
2022-08-05T10:42:33.741Z,18.29
2022-08-05T10:43:24.238Z,18.36
2022-08-05T10:44:24.228Z,18.45
2022-08-05T10:45:40.418Z,18.52
2022-08-05T10:46:24.273Z,18.57
2022-08-05T10:47:26.864Z,18.60
2022-08-05T10:48:31.877Z,18.67
2022-08-05T10:49:27.198Z,18.78
2022-08-05T10:50:36.603Z,18.88
2022-08-05T10:51:28.869Z,18.94
2022-08-05T10:52:24.350Z,18.99
2022-08-05T10:53:23.108Z,19.08
2022-08-05T10:54:29.865Z,19.13
2022-08-05T10:55:24.081Z,19.22
2022-08-05T10:56:25.909Z,19.22
2022-08-05T10:57:23.077Z,19.37
2022-08-05T10:58:23.057Z,19.46
2022-08-05T11:00:02.414Z,19.61
2022-08-05T11:00:24.028Z,19.78
2022-08-05T11:01:28.376Z,19.92
2022-08-05T11:02:38.371Z,20.10
2022-08-05T11:03:26.940Z,20.18
2022-08-05T11:04:22.967Z,20.28
2022-08-05T11:05:26.274Z,20.24
2022-08-05T11:06:30.829Z,20.23
2022-08-05T11:07:33.350Z,20.26
2022-08-05T11:08:37.904Z,20.29
2022-08-05T11:09:24.456Z,20.38
2022-08-05T11:10:27.555Z,20.36
2022-08-05T11:11:23.877Z,20.43
2022-08-05T11:12:24.043Z,20.43
2022-08-05T11:13:22.854Z,20.54
2022-08-05T11:14:37.084Z,20.57
2022-08-05T11:15:23.826Z,20.57
2022-08-05T11:16:34.013Z,20.51
2022-08-05T11:17:58.917Z,20.41
2022-08-05T11:18:23.785Z,20.41
2022-08-05T11:20:16.603Z,20.42
2022-08-05T11:20:23.768Z,20.55
2022-08-05T11:21:22.756Z,20.64
2022-08-05T11:22:22.745Z,20.73
2022-08-05T11:23:22.736Z,20.98
2022-08-05T11:24:30.707Z,21.21
2022-08-05T11:26:05.849Z,21.50
2022-08-05T11:26:28.646Z,21.83
2022-08-05T11:27:23.774Z,22.05
2022-08-05T11:28:23.229Z,22.31
2022-08-05T11:29:22.665Z,22.49
2022-08-05T11:30:22.635Z,22.64
2022-08-05T11:31:57.537Z,22.77
2022-08-05T11:32:23.614Z,23.00
2022-08-05T11:33:22.597Z,23.13
2022-08-05T11:34:22.806Z,23.19
2022-08-05T11:35:22.585Z,23.22
2022-08-05T11:36:34.698Z,23.42
2022-08-05T11:38:28.420Z,23.53
2022-08-05T11:38:29.692Z,23.69
2022-08-05T11:39:23.610Z,23.80
2022-08-05T11:40:22.605Z,23.95
2022-08-05T11:41:58.056Z,23.93
2022-08-05T11:42:23.484Z,23.84
2022-08-05T11:44:04.925Z,23.47
2022-08-05T11:44:40.659Z,23.27
2022-08-05T11:46:15.310Z,23.10
2022-08-05T11:46:23.513Z,23.01
2022-08-05T11:47:49.059Z,22.97
2022-08-05T11:48:23.416Z,23.01
2022-08-05T11:49:22.394Z,23.04
2022-08-05T11:50:22.383Z,23.13
2022-08-05T11:51:44.207Z,23.19
2022-08-05T11:52:23.370Z,23.19
2022-08-05T11:53:23.345Z,23.23
2022-08-05T11:54:22.334Z,23.42
2022-08-05T11:55:23.324Z,23.55
2022-08-05T11:56:23.303Z,23.69
2022-08-05T11:57:25.259Z,23.88
2022-08-05T11:58:22.283Z,24.06
2022-08-05T11:59:22.263Z,24.35
2022-08-05T12:00:22.243Z,24.58
2022-08-05T12:01:23.244Z,24.61
2022-08-05T12:02:29.686Z,24.64
2022-08-05T12:03:29.243Z,24.60
2022-08-05T12:04:23.193Z,24.58
2022-08-05T12:05:25.974Z,24.73
2022-08-05T12:06:23.173Z,24.80
2022-08-05T12:08:03.702Z,24.81
2022-08-05T12:08:23.154Z,24.85
2022-08-05T12:09:22.133Z,24.95
2022-08-05T12:10:23.112Z,25.05
2022-08-05T12:11:22.112Z,24.96
2022-08-05T12:12:22.123Z,24.85
2022-08-05T12:13:48.422Z,24.68
2022-08-05T12:14:24.237Z,24.71
2022-08-05T12:15:38.570Z,24.81
2022-08-05T12:16:27.066Z,24.91
2022-08-05T12:18:03.399Z,25.05
2022-08-05T12:18:24.346Z,25.21
2022-08-05T12:20:25.918Z,25.36
2022-08-05T12:20:28.854Z,25.36
2022-08-05T12:21:23.766Z,25.21
2022-08-05T12:22:21.994Z,25.09
2022-08-05T12:23:21.953Z,24.95
2022-08-05T12:24:21.964Z,24.83
2022-08-05T12:25:24.643Z,24.73
2022-08-05T12:26:23.205Z,24.73
2022-08-05T12:27:25.076Z,24.80
2022-08-05T12:28:21.892Z,24.85
2022-08-05T12:29:23.548Z,24.83
2022-08-05T12:30:21.885Z,24.76
2022-08-05T12:31:23.764Z,24.71
2022-08-05T12:32:22.852Z,24.64
2022-08-05T12:33:27.676Z,24.60
2022-08-05T12:34:23.560Z,24.46
2022-08-05T12:35:21.997Z,24.49
2022-08-05T12:36:21.833Z,24.47
2022-08-05T12:37:21.963Z,24.50
2022-08-05T12:38:22.360Z,24.61
2022-08-05T12:39:23.751Z,24.77
2022-08-05T12:40:26.905Z,24.87
2022-08-05T12:41:22.723Z,24.99
2022-08-05T12:42:25.319Z,25.21
2022-08-05T12:43:21.702Z,25.40
2022-08-05T12:44:33.946Z,25.46
2022-08-05T12:45:22.672Z,25.46
2022-08-05T12:46:28.038Z,25.51
2022-08-05T12:47:22.888Z,25.45
2022-08-05T12:48:32.097Z,25.36
2022-08-05T12:49:25.553Z,25.25
2022-08-05T12:50:21.610Z,25.30
2022-08-05T12:52:12.115Z,25.24
2022-08-05T12:52:27.033Z,25.06
2022-08-05T12:53:22.582Z,25.02